sensor_id;sensor_type;location;lat;lon;timestamp;P1;durP1;ratioP1;P2;durP2;ratioP2
44732;SDS011;30460;50.836;4.390;2023-03-01T06:19:01;10.67;;;8.90;;
44732;SDS011;30460;50.836;4.390;2023-03-01T06:21:27;9.30;;;8.20;;
44732;SDS011;30460;50.836;4.390;2023-03-01T06:23:53;10.90;;;8.73;;
44732;SDS011;30460;50.836;4.390;2023-03-01T06:26:19;10.03;;;8.43;;
44732;SDS011;30460;50.836;4.390;2023-03-01T06:28:45;11.07;;;9.10;;
44732;SDS011;30460;50.836;4.390;2023-03-01T06:31:11;11.57;;;8.83;;
44732;SDS011;30460;50.836;4.390;2023-03-01T06:33:38;11.80;;;8.93;;
44732;SDS011;30460;50.836;4.390;2023-03-01T06:36:04;11.23;;;8.70;;
44732;SDS011;30460;50.836;4.390;2023-03-01T06:38:30;13.87;;;9.50;;
44732;SDS011;30460;50.836;4.390;2023-03-01T06:40:56;10.87;;;7.93;;
44732;SDS011;30460;50.836;4.390;2023-03-01T06:43:22;11.10;;;9.23;;
44732;SDS011;30460;50.836;4.390;2023-03-01T06:45:48;11.23;;;8.40;;
44732;SDS011;30460;50.836;4.390;2023-03-01T06:48:15;14.50;;;9.50;;
44732;SDS011;30460;50.836;4.390;2023-03-01T06:50:41;11.47;;;8.37;;
44732;SDS011;30460;50.836;4.390;2023-03-01T06:53:07;11.57;;;9.50;;
44732;SDS011;30460;50.836;4.390;2023-03-01T06:55:33;11.00;;;9.10;;
44732;SDS011;30460;50.836;4.390;2023-03-01T06:57:59;12.20;;;9.10;;
44732;SDS011;30460;50.836;4.390;2023-03-01T07:00:27;12.07;;;8.83;;
44732;SDS011;30460;50.836;4.390;2023-03-01T07:02:54;10.00;;;8.87;;
44732;SDS011;30460;50.836;4.390;2023-03-01T07:05:20;10.03;;;8.57;;
44732;SDS011;30460;50.836;4.390;2023-03-01T07:07:46;11.60;;;9.30;;
44732;SDS011;30460;50.836;4.390;2023-03-01T07:10:13;11.83;;;9.70;;
44732;SDS011;30460;50.836;4.390;2023-03-01T07:12:41;13.80;;;9.43;;
44732;SDS011;30460;50.836;4.390;2023-03-01T07:15:08;14.27;;;9.80;;
44732;SDS011;30460;50.836;4.390;2023-03-01T07:17:35;11.20;;;9.30;;
44732;SDS011;30460;50.836;4.390;2023-03-01T07:20:01;13.10;;;8.63;;
44732;SDS011;30460;50.836;4.390;2023-03-01T07:22:27;12.87;;;9.13;;
44732;SDS011;30460;50.836;4.390;2023-03-01T07:24:53;14.10;;;8.97;;
44732;SDS011;30460;50.836;4.390;2023-03-01T07:27:20;10.97;;;9.23;;
44732;SDS011;30460;50.836;4.390;2023-03-01T07:29:46;11.57;;;9.00;;
44732;SDS011;30460;50.836;4.390;2023-03-01T07:32:12;14.33;;;8.80;;
44732;SDS011;30460;50.836;4.390;2023-03-01T07:34:38;13.10;;;9.70;;
44732;SDS011;30460;50.836;4.390;2023-03-01T07:37:04;11.50;;;9.30;;
44732;SDS011;30460;50.836;4.390;2023-03-01T07:39:30;12.13;;;9.00;;
44732;SDS011;30460;50.836;4.390;2023-03-01T07:41:56;11.20;;;8.87;;
44732;SDS011;30460;50.836;4.390;2023-03-01T07:44:23;11.33;;;9.50;;
44732;SDS011;30460;50.836;4.390;2023-03-01T07:46:49;12.60;;;9.03;;
44732;SDS011;30460;50.836;4.390;2023-03-01T07:49:17;11.90;;;9.13;;
44732;SDS011;30460;50.836;4.390;2023-03-01T07:51:43;12.00;;;9.57;;
44732;SDS011;30460;50.836;4.390;2023-03-01T07:54:12;11.60;;;9.80;;
44732;SDS011;30460;50.836;4.390;2023-03-01T07:56:38;12.30;;;10.00;;
44732;SDS011;30460;50.836;4.390;2023-03-01T07:59:05;12.60;;;9.40;;
44732;SDS011;30460;50.836;4.390;2023-03-01T08:01:31;13.37;;;9.07;;
44732;SDS011;30460;50.836;4.390;2023-03-01T08:03:57;12.07;;;9.27;;
44732;SDS011;30460;50.836;4.390;2023-03-01T08:06:23;10.57;;;9.33;;
44732;SDS011;30460;50.836;4.390;2023-03-01T08:08:50;10.73;;;9.40;;
44732;SDS011;30460;50.836;4.390;2023-03-01T08:11:16;11.20;;;9.27;;
44732;SDS011;30460;50.836;4.390;2023-03-01T08:13:42;12.00;;;9.30;;
44732;SDS011;30460;50.836;4.390;2023-03-01T08:16:12;12.90;;;9.77;;
44732;SDS011;30460;50.836;4.390;2023-03-01T08:18:39;11.00;;;9.50;;
44732;SDS011;30460;50.836;4.390;2023-03-01T08:21:06;11.77;;;10.03;;
44732;SDS011;30460;50.836;4.390;2023-03-01T08:23:33;12.77;;;9.40;;
44732;SDS011;30460;50.836;4.390;2023-03-01T08:26:03;13.70;;;9.13;;
44732;SDS011;30460;50.836;4.390;2023-03-01T08:28:29;12.83;;;10.93;;
44732;SDS011;30460;50.836;4.390;2023-03-01T08:30:55;11.27;;;9.90;;
44732;SDS011;30460;50.836;4.390;2023-03-01T08:33:22;11.93;;;10.03;;
44732;SDS011;30460;50.836;4.390;2023-03-01T08:35:48;15.03;;;10.27;;
44732;SDS011;30460;50.836;4.390;2023-03-01T08:38:15;14.90;;;9.37;;
44732;SDS011;30460;50.836;4.390;2023-03-01T08:40:41;14.77;;;10.20;;
44732;SDS011;30460;50.836;4.390;2023-03-01T08:43:07;13.73;;;10.50;;
44732;SDS011;30460;50.836;4.390;2023-03-01T08:45:33;11.63;;;9.50;;
44732;SDS011;30460;50.836;4.390;2023-03-01T08:48:00;15.63;;;10.20;;
44732;SDS011;30460;50.836;4.390;2023-03-01T08:50:26;12.23;;;10.23;;
44732;SDS011;30460;50.836;4.390;2023-03-01T08:52:52;14.23;;;10.83;;
44732;SDS011;30460;50.836;4.390;2023-03-01T08:55:18;14.80;;;9.97;;
44732;SDS011;30460;50.836;4.390;2023-03-01T08:57:44;13.53;;;10.73;;
44732;SDS011;30460;50.836;4.390;2023-03-01T09:00:10;13.03;;;10.53;;
44732;SDS011;30460;50.836;4.390;2023-03-01T09:02:37;14.90;;;10.70;;
44732;SDS011;30460;50.836;4.390;2023-03-01T09:05:04;13.40;;;10.07;;
44732;SDS011;30460;50.836;4.390;2023-03-01T09:07:30;13.53;;;10.13;;
44732;SDS011;30460;50.836;4.390;2023-03-01T09:09:56;15.03;;;10.97;;
44732;SDS011;30460;50.836;4.390;2023-03-01T09:12:22;14.20;;;11.10;;
44732;SDS011;30460;50.836;4.390;2023-03-01T09:14:49;13.90;;;11.43;;
44732;SDS011;30460;50.836;4.390;2023-03-01T09:17:16;13.73;;;10.60;;
44732;SDS011;30460;50.836;4.390;2023-03-01T09:19:42;11.03;;;9.90;;
44732;SDS011;30460;50.836;4.390;2023-03-01T09:22:08;13.97;;;10.50;;
44732;SDS011;30460;50.836;4.390;2023-03-01T09:24:34;13.33;;;10.20;;
44732;SDS011;30460;50.836;4.390;2023-03-01T09:27:00;14.10;;;10.47;;
44732;SDS011;30460;50.836;4.390;2023-03-01T09:29:29;16.47;;;10.93;;
44732;SDS011;30460;50.836;4.390;2023-03-01T09:31:55;15.33;;;10.90;;
44732;SDS011;30460;50.836;4.390;2023-03-01T09:34:21;14.20;;;10.07;;
44732;SDS011;30460;50.836;4.390;2023-03-01T09:36:48;12.20;;;10.30;;
44732;SDS011;30460;50.836;4.390;2023-03-01T09:39:15;13.30;;;10.17;;
44732;SDS011;30460;50.836;4.390;2023-03-01T09:47:20;14.77;;;10.77;;
44732;SDS011;30460;50.836;4.390;2023-03-01T09:52:41;16.70;;;11.53;;
44732;SDS011;30460;50.836;4.390;2023-03-01T09:55:10;14.30;;;11.13;;
44732;SDS011;30460;50.836;4.390;2023-03-01T09:57:58;13.10;;;10.70;;
44732;SDS011;30460;50.836;4.390;2023-03-01T10:05:31;15.53;;;11.77;;
44732;SDS011;30460;50.836;4.390;2023-03-01T10:10:28;19.03;;;12.13;;
44732;SDS011;30460;50.836;4.390;2023-03-01T10:12:57;14.73;;;11.80;;
44732;SDS011;30460;50.836;4.390;2023-03-01T10:15:30;13.87;;;12.00;;
44732;SDS011;30460;50.836;4.390;2023-03-01T10:18:01;19.30;;;11.73;;
44732;SDS011;30460;50.836;4.390;2023-03-01T10:20:42;16.83;;;12.23;;
44732;SDS011;30460;50.836;4.390;2023-03-01T10:23:09;17.30;;;11.60;;
44732;SDS011;30460;50.836;4.390;2023-03-01T10:25:39;14.00;;;10.70;;
44732;SDS011;30460;50.836;4.390;2023-03-01T10:30:43;14.37;;;10.80;;
44732;SDS011;30460;50.836;4.390;2023-03-01T10:33:29;14.87;;;11.27;;
44732;SDS011;30460;50.836;4.390;2023-03-01T10:35:56;15.27;;;11.27;;
44732;SDS011;30460;50.836;4.390;2023-03-01T10:38:23;13.17;;;10.40;;
44732;SDS011;30460;50.836;4.390;2023-03-01T10:40:56;15.60;;;11.60;;
44732;SDS011;30460;50.836;4.390;2023-03-01T10:43:24;13.37;;;10.97;;
44732;SDS011;30460;50.836;4.390;2023-03-01T10:45:51;13.30;;;10.73;;
44732;SDS011;30460;50.836;4.390;2023-03-01T10:48:19;14.07;;;10.20;;
44732;SDS011;30460;50.836;4.390;2023-03-01T10:50:49;13.70;;;10.77;;
44732;SDS011;30460;50.836;4.390;2023-03-01T10:53:22;14.27;;;10.57;;
44732;SDS011;30460;50.836;4.390;2023-03-01T10:55:58;14.77;;;12.07;;
44732;SDS011;30460;50.836;4.390;2023-03-01T10:58:24;14.57;;;11.20;;
44732;SDS011;30460;50.836;4.390;2023-03-01T11:03:30;13.63;;;10.20;;
44732;SDS011;30460;50.836;4.390;2023-03-01T11:06:01;12.60;;;9.97;;
44732;SDS011;30460;50.836;4.390;2023-03-01T11:08:35;15.47;;;10.67;;
44732;SDS011;30460;50.836;4.390;2023-03-01T11:13:54;14.77;;;10.80;;
44732;SDS011;30460;50.836;4.390;2023-03-01T11:16:24;13.23;;;10.47;;
44732;SDS011;30460;50.836;4.390;2023-03-01T11:18:59;13.23;;;10.43;;
44732;SDS011;30460;50.836;4.390;2023-03-01T11:21:26;12.30;;;10.07;;
44732;SDS011;30460;50.836;4.390;2023-03-01T11:23:56;13.47;;;10.50;;
44732;SDS011;30460;50.836;4.390;2023-03-01T11:26:23;12.97;;;8.60;;
44732;SDS011;30460;50.836;4.390;2023-03-01T11:28:50;11.27;;;9.83;;
44732;SDS011;30460;50.836;4.390;2023-03-01T11:31:17;13.40;;;10.20;;
44732;SDS011;30460;50.836;4.390;2023-03-01T11:33:46;17.10;;;10.90;;
44732;SDS011;30460;50.836;4.390;2023-03-01T11:36:20;13.40;;;11.07;;
44732;SDS011;30460;50.836;4.390;2023-03-01T11:38:48;16.13;;;11.03;;
44732;SDS011;30460;50.836;4.390;2023-03-01T11:41:49;13.43;;;10.37;;
44732;SDS011;30460;50.836;4.390;2023-03-01T11:44:20;16.53;;;10.33;;
44732;SDS011;30460;50.836;4.390;2023-03-01T11:46:57;9.90;;;8.53;;
44732;SDS011;30460;50.836;4.390;2023-03-01T12:08:03;12.23;;;8.93;;
44732;SDS011;30460;50.836;4.390;2023-03-01T12:21:42;10.70;;;7.80;;
44732;SDS011;30460;50.836;4.390;2023-03-01T12:24:19;12.43;;;9.23;;
44732;SDS011;30460;50.836;4.390;2023-03-01T12:27:11;13.10;;;10.03;;
44732;SDS011;30460;50.836;4.390;2023-03-01T12:37:29;11.70;;;9.90;;
44732;SDS011;30460;50.836;4.390;2023-03-01T12:50:49;11.73;;;8.57;;
44732;SDS011;30460;50.836;4.390;2023-03-01T12:53:22;11.53;;;9.10;;
44732;SDS011;30460;50.836;4.390;2023-03-01T12:55:49;11.67;;;8.57;;
44732;SDS011;30460;50.836;4.390;2023-03-01T13:09:22;12.13;;;9.07;;
44732;SDS011;30460;50.836;4.390;2023-03-01T13:11:49;13.13;;;9.03;;
44732;SDS011;30460;50.836;4.390;2023-03-01T13:16:48;10.43;;;8.63;;
44732;SDS011;30460;50.836;4.390;2023-03-01T13:21:47;12.73;;;9.63;;
44732;SDS011;30460;50.836;4.390;2023-03-01T13:27:08;13.93;;;9.70;;
44732;SDS011;30460;50.836;4.390;2023-03-01T13:29:51;11.63;;;8.43;;
44732;SDS011;30460;50.836;4.390;2023-03-01T13:34:47;13.97;;;9.63;;
44732;SDS011;30460;50.836;4.390;2023-03-01T13:37:21;12.57;;;9.07;;
44732;SDS011;30460;50.836;4.390;2023-03-01T13:39:47;11.93;;;9.37;;
44732;SDS011;30460;50.836;4.390;2023-03-01T13:42:56;14.47;;;10.00;;
44732;SDS011;30460;50.836;4.390;2023-03-01T13:45:04;16.20;;;10.47;;
44732;SDS011;30460;50.836;4.390;2023-03-01T13:47:31;14.10;;;9.17;;
44732;SDS011;30460;50.836;4.390;2023-03-01T13:49:59;12.67;;;9.47;;
44732;SDS011;30460;50.836;4.390;2023-03-01T13:54:51;14.83;;;9.30;;
44732;SDS011;30460;50.836;4.390;2023-03-01T13:57:21;11.70;;;8.47;;
44732;SDS011;30460;50.836;4.390;2023-03-01T13:59:48;17.87;;;10.27;;
44732;SDS011;30460;50.836;4.390;2023-03-01T14:02:14;11.60;;;8.70;;
44732;SDS011;30460;50.836;4.390;2023-03-01T14:04:41;12.63;;;9.47;;
44732;SDS011;30460;50.836;4.390;2023-03-01T14:07:12;14.27;;;9.83;;
44732;SDS011;30460;50.836;4.390;2023-03-01T14:09:43;12.17;;;9.10;;
44732;SDS011;30460;50.836;4.390;2023-03-01T14:14:44;13.70;;;9.47;;
44732;SDS011;30460;50.836;4.390;2023-03-01T14:17:17;13.40;;;9.33;;
44732;SDS011;30460;50.836;4.390;2023-03-01T14:19:46;11.47;;;8.63;;
44732;SDS011;30460;50.836;4.390;2023-03-01T14:22:20;12.10;;;9.27;;
44732;SDS011;30460;50.836;4.390;2023-03-01T14:24:51;10.93;;;8.63;;
44732;SDS011;30460;50.836;4.390;2023-03-01T14:27:18;10.07;;;9.00;;
44732;SDS011;30460;50.836;4.390;2023-03-01T14:29:44;13.10;;;9.70;;
44732;SDS011;30460;50.836;4.390;2023-03-01T14:32:20;16.07;;;9.80;;
44732;SDS011;30460;50.836;4.390;2023-03-01T14:34:48;12.20;;;9.73;;
44732;SDS011;30460;50.836;4.390;2023-03-01T14:39:46;13.20;;;9.53;;
44732;SDS011;30460;50.836;4.390;2023-03-01T14:42:12;14.53;;;9.40;;
44732;SDS011;30460;50.836;4.390;2023-03-01T14:44:40;11.17;;;8.83;;
44732;SDS011;30460;50.836;4.390;2023-03-01T14:47:15;11.27;;;9.73;;
44732;SDS011;30460;50.836;4.390;2023-03-01T14:49:42;11.17;;;8.47;;
44732;SDS011;30460;50.836;4.390;2023-03-01T14:52:20;13.20;;;9.83;;
44732;SDS011;30460;50.836;4.390;2023-03-01T14:54:52;11.83;;;9.60;;
44732;SDS011;30460;50.836;4.390;2023-03-01T14:57:19;11.57;;;8.50;;
44732;SDS011;30460;50.836;4.390;2023-03-01T14:59:50;11.90;;;9.47;;
44732;SDS011;30460;50.836;4.390;2023-03-01T15:02:18;11.73;;;9.00;;
44732;SDS011;30460;50.836;4.390;2023-03-01T15:04:46;11.53;;;8.13;;
44732;SDS011;30460;50.836;4.390;2023-03-01T15:07:13;14.37;;;9.67;;
44732;SDS011;30460;50.836;4.390;2023-03-01T15:09:40;12.90;;;9.33;;
44732;SDS011;30460;50.836;4.390;2023-03-01T15:17:56;11.27;;;9.17;;
44732;SDS011;30460;50.836;4.390;2023-03-01T15:20:24;11.93;;;8.37;;
44732;SDS011;30460;50.836;4.390;2023-03-01T15:22:53;12.73;;;9.70;;
44732;SDS011;30460;50.836;4.390;2023-03-01T15:25:21;12.40;;;9.27;;
44732;SDS011;30460;50.836;4.390;2023-03-01T15:27:48;15.07;;;9.90;;
44732;SDS011;30460;50.836;4.390;2023-03-01T15:30:20;11.87;;;9.60;;
44732;SDS011;30460;50.836;4.390;2023-03-01T15:32:46;12.07;;;9.17;;
44732;SDS011;30460;50.836;4.390;2023-03-01T15:37:57;11.57;;;9.33;;
44732;SDS011;30460;50.836;4.390;2023-03-01T15:40:29;11.37;;;9.00;;
44732;SDS011;30460;50.836;4.390;2023-03-01T15:43:02;13.33;;;9.43;;
44732;SDS011;30460;50.836;4.390;2023-03-01T15:45:30;13.10;;;10.23;;
44732;SDS011;30460;50.836;4.390;2023-03-01T15:48:02;11.70;;;9.83;;
44732;SDS011;30460;50.836;4.390;2023-03-01T15:50:33;15.40;;;10.50;;
44732;SDS011;30460;50.836;4.390;2023-03-01T15:52:59;10.87;;;8.87;;
44732;SDS011;30460;50.836;4.390;2023-03-01T15:55:27;10.87;;;9.30;;
44732;SDS011;30460;50.836;4.390;2023-03-01T15:58:13;12.23;;;9.10;;
44732;SDS011;30460;50.836;4.390;2023-03-01T16:00:40;9.73;;;8.30;;
44732;SDS011;30460;50.836;4.390;2023-03-01T16:03:07;12.83;;;9.73;;
44732;SDS011;30460;50.836;4.390;2023-03-01T16:05:37;12.93;;;10.00;;
44732;SDS011;30460;50.836;4.390;2023-03-01T16:08:03;12.80;;;9.13;;
44732;SDS011;30460;50.836;4.390;2023-03-01T16:10:30;12.27;;;9.73;;
44732;SDS011;30460;50.836;4.390;2023-03-01T16:12:57;11.77;;;9.33;;
44732;SDS011;30460;50.836;4.390;2023-03-01T16:15:30;11.67;;;8.87;;
44732;SDS011;30460;50.836;4.390;2023-03-01T16:17:57;10.33;;;7.53;;
44732;SDS011;30460;50.836;4.390;2023-03-01T16:20:24;11.17;;;8.80;;
44732;SDS011;30460;50.836;4.390;2023-03-01T16:22:50;12.00;;;8.80;;
44732;SDS011;30460;50.836;4.390;2023-03-01T16:25:17;12.97;;;8.73;;
44732;SDS011;30460;50.836;4.390;2023-03-01T16:27:48;12.87;;;8.23;;
44732;SDS011;30460;50.836;4.390;2023-03-01T16:30:15;11.83;;;8.60;;
44732;SDS011;30460;50.836;4.390;2023-03-01T16:32:42;14.30;;;9.97;;
44732;SDS011;30460;50.836;4.390;2023-03-01T16:35:09;14.57;;;9.70;;
44732;SDS011;30460;50.836;4.390;2023-03-01T16:37:36;12.57;;;9.30;;
44732;SDS011;30460;50.836;4.390;2023-03-01T16:40:03;12.00;;;9.40;;
44732;SDS011;30460;50.836;4.390;2023-03-01T16:42:36;10.27;;;8.30;;
44732;SDS011;30460;50.836;4.390;2023-03-01T16:45:03;13.10;;;10.20;;
44732;SDS011;30460;50.836;4.390;2023-03-01T16:47:32;11.07;;;8.43;;
44732;SDS011;30460;50.836;4.390;2023-03-01T16:49:58;13.97;;;9.23;;
44732;SDS011;30460;50.836;4.390;2023-03-01T16:52:25;12.20;;;8.73;;
44732;SDS011;30460;50.836;4.390;2023-03-01T16:54:51;12.77;;;9.10;;
44732;SDS011;30460;50.836;4.390;2023-03-01T16:57:17;10.80;;;7.50;;
44732;SDS011;30460;50.836;4.390;2023-03-01T16:59:43;10.73;;;8.67;;
44732;SDS011;30460;50.836;4.390;2023-03-01T17:02:10;16.50;;;9.00;;
44732;SDS011;30460;50.836;4.390;2023-03-01T17:04:37;11.27;;;9.43;;
44732;SDS011;30460;50.836;4.390;2023-03-01T17:07:04;12.80;;;9.67;;
44732;SDS011;30460;50.836;4.390;2023-03-01T17:09:30;9.67;;;7.43;;
44732;SDS011;30460;50.836;4.390;2023-03-01T17:11:59;10.97;;;8.87;;
44732;SDS011;30460;50.836;4.390;2023-03-01T17:14:25;12.43;;;9.20;;
44732;SDS011;30460;50.836;4.390;2023-03-01T17:16:51;10.77;;;8.40;;
44732;SDS011;30460;50.836;4.390;2023-03-01T17:19:18;12.13;;;9.43;;
44732;SDS011;30460;50.836;4.390;2023-03-01T17:21:44;13.60;;;8.67;;
44732;SDS011;30460;50.836;4.390;2023-03-01T17:24:10;11.43;;;9.30;;
44732;SDS011;30460;50.836;4.390;2023-03-01T17:26:36;13.50;;;9.43;;
44732;SDS011;30460;50.836;4.390;2023-03-01T17:29:02;12.23;;;9.43;;
44732;SDS011;30460;50.836;4.390;2023-03-01T17:31:29;12.03;;;9.00;;
44732;SDS011;30460;50.836;4.390;2023-03-01T17:33:55;13.43;;;9.47;;
44732;SDS011;30460;50.836;4.390;2023-03-01T17:36:21;12.63;;;9.20;;
44732;SDS011;30460;50.836;4.390;2023-03-01T17:38:48;12.27;;;9.10;;
44732;SDS011;30460;50.836;4.390;2023-03-01T17:41:14;11.57;;;9.30;;
44732;SDS011;30460;50.836;4.390;2023-03-01T17:43:42;11.20;;;8.40;;
44732;SDS011;30460;50.836;4.390;2023-03-01T17:46:08;12.60;;;9.57;;
44732;SDS011;30460;50.836;4.390;2023-03-01T17:48:35;11.17;;;9.03;;
44732;SDS011;30460;50.836;4.390;2023-03-01T17:51:04;17.53;;;9.27;;
44732;SDS011;30460;50.836;4.390;2023-03-01T17:53:30;12.30;;;8.70;;
44732;SDS011;30460;50.836;4.390;2023-03-01T17:56:00;12.73;;;8.93;;
44732;SDS011;30460;50.836;4.390;2023-03-01T17:58:26;11.27;;;9.10;;
44732;SDS011;30460;50.836;4.390;2023-03-01T18:00:52;14.57;;;8.80;;
44732;SDS011;30460;50.836;4.390;2023-03-01T18:03:18;14.20;;;8.30;;
44732;SDS011;30460;50.836;4.390;2023-03-01T18:05:45;12.37;;;9.13;;
44732;SDS011;30460;50.836;4.390;2023-03-01T18:08:12;13.03;;;8.93;;
44732;SDS011;30460;50.836;4.390;2023-03-01T18:10:38;10.53;;;8.93;;
44732;SDS011;30460;50.836;4.390;2023-03-01T18:13:05;14.13;;;9.40;;
44732;SDS011;30460;50.836;4.390;2023-03-01T18:15:31;11.23;;;8.20;;
44732;SDS011;30460;50.836;4.390;2023-03-01T18:17:58;11.77;;;8.90;;
44732;SDS011;30460;50.836;4.390;2023-03-01T18:20:24;12.60;;;9.63;;
44732;SDS011;30460;50.836;4.390;2023-03-01T18:22:51;11.70;;;9.33;;
44732;SDS011;30460;50.836;4.390;2023-03-01T18:25:17;14.20;;;9.87;;
44732;SDS011;30460;50.836;4.390;2023-03-01T18:27:44;13.30;;;9.57;;
44732;SDS011;30460;50.836;4.390;2023-03-01T18:30:10;13.03;;;10.27;;
44732;SDS011;30460;50.836;4.390;2023-03-01T18:32:36;13.67;;;9.60;;
44732;SDS011;30460;50.836;4.390;2023-03-01T18:35:03;13.10;;;9.80;;
44732;SDS011;30460;50.836;4.390;2023-03-01T18:37:30;12.90;;;9.47;;
44732;SDS011;30460;50.836;4.390;2023-03-01T18:39:56;12.07;;;9.40;;
44732;SDS011;30460;50.836;4.390;2023-03-01T18:42:22;11.70;;;8.70;;
44732;SDS011;30460;50.836;4.390;2023-03-01T18:44:48;12.53;;;9.50;;
44732;SDS011;30460;50.836;4.390;2023-03-01T18:47:14;10.80;;;8.30;;
44732;SDS011;30460;50.836;4.390;2023-03-01T18:49:40;12.03;;;9.13;;
44732;SDS011;30460;50.836;4.390;2023-03-01T18:52:06;11.37;;;9.20;;
44732;SDS011;30460;50.836;4.390;2023-03-01T18:54:32;13.57;;;9.13;;
44732;SDS011;30460;50.836;4.390;2023-03-01T18:56:59;12.97;;;8.87;;
44732;SDS011;30460;50.836;4.390;2023-03-01T18:59:26;14.20;;;9.83;;
44732;SDS011;30460;50.836;4.390;2023-03-01T19:01:53;13.10;;;9.73;;
44732;SDS011;30460;50.836;4.390;2023-03-01T19:04:19;15.60;;;9.50;;
44732;SDS011;30460;50.836;4.390;2023-03-01T19:06:45;12.27;;;9.33;;
44732;SDS011;30460;50.836;4.390;2023-03-01T19:09:11;13.60;;;9.53;;
44732;SDS011;30460;50.836;4.390;2023-03-01T19:11:38;12.67;;;9.57;;
44732;SDS011;30460;50.836;4.390;2023-03-01T19:14:26;14.13;;;10.00;;
44732;SDS011;30460;50.836;4.390;2023-03-01T19:17:11;13.90;;;9.37;;
44732;SDS011;30460;50.836;4.390;2023-03-01T19:19:38;12.13;;;9.83;;
44732;SDS011;30460;50.836;4.390;2023-03-01T19:22:04;12.43;;;9.70;;
44732;SDS011;30460;50.836;4.390;2023-03-01T19:24:32;13.27;;;9.93;;
44732;SDS011;30460;50.836;4.390;2023-03-01T19:26:59;12.27;;;9.70;;
44732;SDS011;30460;50.836;4.390;2023-03-01T19:29:26;12.90;;;10.10;;
44732;SDS011;30460;50.836;4.390;2023-03-01T19:34:21;15.63;;;10.77;;
44732;SDS011;30460;50.836;4.390;2023-03-01T19:36:49;14.83;;;10.87;;
44732;SDS011;30460;50.836;4.390;2023-03-01T19:39:15;13.13;;;9.73;;
44732;SDS011;30460;50.836;4.390;2023-03-01T19:41:42;15.73;;;10.80;;
44732;SDS011;30460;50.836;4.390;2023-03-01T19:44:10;13.33;;;10.67;;
44732;SDS011;30460;50.836;4.390;2023-03-01T19:46:36;14.80;;;10.57;;
44732;SDS011;30460;50.836;4.390;2023-03-01T19:49:02;16.07;;;11.10;;
44732;SDS011;30460;50.836;4.390;2023-03-01T19:51:30;13.67;;;10.80;;
44732;SDS011;30460;50.836;4.390;2023-03-01T19:54:01;15.07;;;10.47;;
44732;SDS011;30460;50.836;4.390;2023-03-01T19:56:27;15.10;;;10.70;;
44732;SDS011;30460;50.836;4.390;2023-03-01T19:58:54;16.33;;;11.30;;
44732;SDS011;30460;50.836;4.390;2023-03-01T20:01:24;14.47;;;10.63;;
44732;SDS011;30460;50.836;4.390;2023-03-01T20:03:53;15.93;;;10.90;;
44732;SDS011;30460;50.836;4.390;2023-03-01T20:06:20;13.53;;;10.63;;
44732;SDS011;30460;50.836;4.390;2023-03-01T20:08:47;17.30;;;11.80;;
44732;SDS011;30460;50.836;4.390;2023-03-01T20:11:14;16.17;;;11.53;;
44732;SDS011;30460;50.836;4.390;2023-03-01T20:13:41;14.77;;;11.13;;
44732;SDS011;30460;50.836;4.390;2023-03-01T20:16:08;16.43;;;11.67;;
44732;SDS011;30460;50.836;4.390;2023-03-01T20:18:34;16.57;;;11.57;;
44732;SDS011;30460;50.836;4.390;2023-03-01T20:21:00;17.43;;;11.63;;
44732;SDS011;30460;50.836;4.390;2023-03-01T20:23:26;15.40;;;11.73;;
44732;SDS011;30460;50.836;4.390;2023-03-01T20:26:00;16.87;;;11.33;;
44732;SDS011;30460;50.836;4.390;2023-03-01T20:28:28;17.87;;;12.17;;
44732;SDS011;30460;50.836;4.390;2023-03-01T20:30:54;16.93;;;12.37;;
44732;SDS011;30460;50.836;4.390;2023-03-01T20:33:20;17.83;;;12.60;;
44732;SDS011;30460;50.836;4.390;2023-03-01T20:35:46;16.57;;;11.97;;
44732;SDS011;30460;50.836;4.390;2023-03-01T20:38:15;15.73;;;12.30;;
44732;SDS011;30460;50.836;4.390;2023-03-01T20:40:41;17.67;;;12.40;;
44732;SDS011;30460;50.836;4.390;2023-03-01T20:43:07;17.17;;;12.93;;
44732;SDS011;30460;50.836;4.390;2023-03-01T20:45:33;16.70;;;12.27;;
44732;SDS011;30460;50.836;4.390;2023-03-01T20:47:59;14.97;;;12.23;;
44732;SDS011;30460;50.836;4.390;2023-03-01T20:50:25;18.83;;;13.57;;
44732;SDS011;30460;50.836;4.390;2023-03-01T20:52:51;16.93;;;12.73;;
44732;SDS011;30460;50.836;4.390;2023-03-01T20:55:17;16.10;;;13.00;;
44732;SDS011;30460;50.836;4.390;2023-03-01T20:57:43;18.40;;;13.00;;
44732;SDS011;30460;50.836;4.390;2023-03-01T21:00:15;17.80;;;12.47;;
44732;SDS011;30460;50.836;4.390;2023-03-01T21:02:46;18.57;;;12.77;;
44732;SDS011;30460;50.836;4.390;2023-03-01T21:05:18;19.43;;;13.13;;
44732;SDS011;30460;50.836;4.390;2023-03-01T21:07:47;17.50;;;12.53;;
44732;SDS011;30460;50.836;4.390;2023-03-01T21:10:14;17.33;;;13.50;;
44732;SDS011;30460;50.836;4.390;2023-03-01T21:16:12;18.87;;;13.20;;
44732;SDS011;30460;50.836;4.390;2023-03-01T21:18:47;19.37;;;12.47;;
44732;SDS011;30460;50.836;4.390;2023-03-01T21:21:14;20.53;;;12.80;;
44732;SDS011;30460;50.836;4.390;2023-03-01T21:23:41;17.57;;;13.30;;
44732;SDS011;30460;50.836;4.390;2023-03-01T21:28:40;19.40;;;13.57;;
44732;SDS011;30460;50.836;4.390;2023-03-01T21:31:07;19.00;;;13.97;;
44732;SDS011;30460;50.836;4.390;2023-03-01T21:33:34;19.10;;;13.87;;
44732;SDS011;30460;50.836;4.390;2023-03-01T21:36:01;19.90;;;14.43;;
44732;SDS011;30460;50.836;4.390;2023-03-01T21:38:28;17.70;;;13.50;;
44732;SDS011;30460;50.836;4.390;2023-03-01T21:40:55;18.40;;;13.83;;
44732;SDS011;30460;50.836;4.390;2023-03-01T21:43:21;20.20;;;13.90;;
44732;SDS011;30460;50.836;4.390;2023-03-01T21:45:47;18.00;;;13.47;;
44732;SDS011;30460;50.836;4.390;2023-03-01T21:48:13;19.33;;;13.57;;
44732;SDS011;30460;50.836;4.390;2023-03-01T21:50:39;17.37;;;13.23;;
44732;SDS011;30460;50.836;4.390;2023-03-01T21:53:05;19.67;;;14.07;;
44732;SDS011;30460;50.836;4.390;2023-03-01T21:55:32;19.10;;;13.93;;
44732;SDS011;30460;50.836;4.390;2023-03-01T21:57:58;21.93;;;13.87;;
44732;SDS011;30460;50.836;4.390;2023-03-01T22:00:24;17.90;;;13.77;;
44732;SDS011;30460;50.836;4.390;2023-03-01T22:02:52;18.83;;;14.70;;
44732;SDS011;30460;50.836;4.390;2023-03-01T22:05:22;18.93;;;14.10;;
44732;SDS011;30460;50.836;4.390;2023-03-01T22:07:49;20.77;;;14.20;;
44732;SDS011;30460;50.836;4.390;2023-03-01T22:10:15;21.17;;;13.30;;
44732;SDS011;30460;50.836;4.390;2023-03-01T22:12:50;20.13;;;13.83;;
44732;SDS011;30460;50.836;4.390;2023-03-01T22:15:16;21.90;;;14.67;;
44732;SDS011;30460;50.836;4.390;2023-03-01T22:17:43;20.10;;;13.67;;
44732;SDS011;30460;50.836;4.390;2023-03-01T22:20:09;19.57;;;13.17;;
